Time;durP1;ratioP1;P1;durP2;ratioP2;P2;SDS_P1;SDS_P2;PMS_P1;PMS_P2;Temp;Humidity;BMP_temperature;BMP_pressure;BME280_temperature;BME280_humidity;BME280_pressure;Samples;Min_cycle;Max_cycle;Signal;HPM_P1;HPM_P2
2022/11/20 00:01:05;;;;;;;28.63;26.23;;;;;;;22.08;45.73;94345.09;6230465;27;103587;-66
2022/11/20 00:04:11;;;;;;;29.27;26.60;;;;;;;22.08;45.77;94326.44;6233111;28;103459;-66
2022/11/20 00:07:15;;;;;;;27.33;25.00;;;;;;;22.08;45.43;94313.09;6232952;27;103398;-66
2022/11/20 00:10:18;;;;;;;29.50;27.03;;;;;;;22.10;45.52;94338.31;6209223;28;103831;-66
2022/11/20 00:13:21;;;;;;;28.53;26.03;;;;;;;22.09;46.11;94351.97;6232469;28;103508;-66
2022/11/20 00:16:27;;;;;;;28.33;25.83;;;;;;;22.09;45.99;94341.31;6231736;27;103858;-66
2022/11/20 00:19:30;;;;;;;27.20;24.93;;;;;;;22.09;45.74;94315.44;6232177;28;104845;-65
2022/11/20 00:22:35;;;;;;;26.67;24.37;;;;;;;22.09;45.71;94317.34;6222024;27;104208;-65
2022/11/20 00:25:38;;;;;;;27.13;24.83;;;;;;;22.10;46.00;94310.91;6230874;28;103875;-65
2022/11/20 00:28:41;;;;;;;24.13;22.17;;;;;;;22.09;46.14;94314.66;6232464;28;104746;-65
2022/11/20 00:31:44;;;;;;;25.20;23.20;;;;;;;22.10;45.75;94309.00;6227082;28;108092;-65
2022/11/20 00:34:47;;;;;;;25.40;23.30;;;;;;;22.11;45.68;94307.91;6226355;28;105276;-66
2022/11/20 00:37:52;;;;;;;25.13;22.83;;;;;;;22.10;46.30;94301.03;6231886;27;103811;-66
2022/11/20 00:40:57;;;;;;;24.30;22.30;;;;;;;22.07;45.81;94315.00;6232434;28;106567;-66
2022/11/20 00:44:00;;;;;;;24.17;22.17;;;;;;;22.10;46.33;94325.00;6221703;28;104444;-66
2022/11/20 00:47:03;;;;;;;23.60;21.60;;;;;;;22.09;45.97;94328.00;6229183;28;103595;-66
2022/11/20 00:50:07;;;;;;;23.50;21.50;;;;;;;22.09;46.15;94326.09;6231018;27;104238;-66
2022/11/20 00:53:12;;;;;;;24.50;22.40;;;;;;;22.08;46.37;94339.75;6231264;28;104657;-67
2022/11/20 00:56:16;;;;;;;22.90;20.90;;;;;;;22.07;46.06;94330.97;6221954;28;103975;-65
2022/11/20 00:59:19;;;;;;;22.93;21.10;;;;;;;22.06;45.86;94340.06;6231459;28;104548;-66
2022/11/20 01:02:23;;;;;;;21.87;19.87;;;;;;;22.08;45.80;94332.53;6230776;27;103678;-66
2022/11/20 01:05:26;;;;;;;21.10;19.30;;;;;;;22.07;46.26;94332.88;6231671;27;103802;-66
2022/11/20 01:08:32;;;;;;;21.97;20.20;;;;;;;22.07;45.99;94328.31;6214342;27;104291;-66
2022/11/20 01:11:37;;;;;;;21.13;19.43;;;;;;;22.08;46.34;94316.56;6230596;27;104757;-66
2022/11/20 01:14:40;;;;;;;20.10;18.50;;;;;;;22.08;46.40;94313.09;6235494;28;103814;-66
2022/11/20 01:17:43;;;;;;;21.27;19.47;;;;;;;22.08;46.38;94313.88;6227305;27;103469;-66
2022/11/20 01:20:46;;;;;;;20.37;18.67;;;;;;;22.10;46.36;94322.34;6230087;27;105105;-66
2022/11/20 01:23:52;;;;;;;20.73;18.83;;;;;;;22.09;45.80;94312.78;6234474;28;103857;-66
2022/11/20 01:26:55;;;;;;;20.83;18.97;;;;;;;22.09;46.31;94304.00;6234905;27;103723;-66
2022/11/20 01:29:58;;;;;;;19.23;17.63;;;;;;;22.08;46.12;94303.22;6223476;28;104699;-66
2022/11/20 01:33:03;;;;;;;18.17;16.57;;;;;;;22.10;45.87;94298.34;6230861;28;104678;-66
2022/11/20 01:36:07;;;;;;;17.60;16.20;;;;;;;22.11;45.84;94283.16;6234341;27;103860;-66
2022/11/20 01:39:15;;;;;;;18.70;17.10;;;;;;;22.10;45.80;94262.94;6235269;27;103665;-66
2022/11/20 01:46:15;;;;;;;19.10;17.40;;;;;;;22.09;45.61;94272.81;6233598;27;103738;-66
2022/11/20 01:49:22;;;;;;;16.33;14.70;;;;;;;22.10;45.99;94258.38;6233856;27;103732;-65
2022/11/20 01:52:29;;;;;;;16.73;15.43;;;;;;;22.10;46.22;94281.59;6224995;28;105112;-66
2022/11/20 01:55:37;;;;;;;16.87;15.53;;;;;;;22.09;45.75;94267.47;6234406;27;103455;-66
2022/11/20 01:58:46;;;;;;;16.93;15.53;;;;;;;22.09;46.11;94264.03;6234952;27;105870;-66
2022/11/20 02:01:49;;;;;;;16.00;14.70;;;;;;;22.09;45.88;94278.16;6234247;28;104044;-66
2022/11/20 02:04:58;;;;;;;15.67;14.37;;;;;;;22.09;45.78;94261.38;6223136;27;103841;-65
2022/11/20 02:08:01;;;;;;;17.10;15.60;;;;;;;22.09;46.21;94261.38;6219322;28;103700;-66
2022/11/20 02:11:06;;;;;;;16.23;14.90;;;;;;;22.09;45.78;94261.38;6234409;27;103730;-66
2022/11/20 02:14:10;;;;;;;15.23;13.93;;;;;;;22.08;46.05;94275.81;6233055;27;103636;-66
2022/11/20 02:17:13;;;;;;;14.27;13.07;;;;;;;22.07;46.07;94301.66;6227291;28;106669;-65
2022/11/20 02:20:16;;;;;;;14.60;13.40;;;;;;;22.07;45.97;94291.00;6234039;28;104721;-64
2022/11/20 02:23:28;;;;;;;14.10;12.90;;;;;;;22.10;46.12;94281.59;6233542;27;107587;-65
2022/11/20 02:26:36;;;;;;;14.20;13.03;;;;;;;22.07;45.94;94268.91;6224472;27;103886;-66
2022/11/20 02:29:43;;;;;;;14.37;13.10;;;;;;;22.09;45.89;94272.03;6230654;28;103953;-66
2022/11/20 02:32:46;;;;;;;13.33;12.20;;;;;;;22.08;46.23;94265.94;6234249;27;103961;-66
2022/11/20 02:35:49;;;;;;;13.90;12.80;;;;;;;22.08;45.68;94297.13;6234344;28;104856;-66
2022/11/20 02:38:53;;;;;;;12.70;11.70;;;;;;;22.09;46.03;94272.81;6223328;27;103885;-66
2022/11/20 02:41:57;;;;;;;13.57;12.47;;;;;;;22.10;46.41;94286.91;6228073;28;103784;-67
2022/11/20 02:45:00;;;;;;;12.40;11.40;;;;;;;22.09;46.05;94278.16;6232642;28;104007;-66
2022/11/20 02:48:04;;;;;;;13.03;12.00;;;;;;;22.08;45.72;94292.56;6232997;27;103965;-66
2022/11/20 02:51:07;;;;;;;13.17;12.10;;;;;;;22.09;46.14;94306.66;6221342;27;103828;-66
2022/11/20 02:54:10;;;;;;;13.87;12.77;;;;;;;22.08;45.77;94303.22;6233181;27;103665;-66
2022/11/20 02:57:15;;;;;;;13.10;12.00;;;;;;;22.08;46.35;94311.22;6233913;27;104946;-68
2022/11/20 03:00:18;;;;;;;12.77;11.70;;;;;;;22.08;46.02;94318.44;6227862;28;103925;-68
2022/11/20 03:03:21;;;;;;;12.03;10.93;;;;;;;22.09;45.83;94315.44;6227912;28;104578;-66
2022/11/20 03:06:24;;;;;;;11.70;10.80;;;;;;;22.09;45.69;94328.78;6233097;27;104930;-68
2022/11/20 03:09:27;;;;;;;10.47;9.63;;;;;;;22.09;45.76;94331.44;6233092;27;103861;-68
2022/11/20 03:12:31;;;;;;;11.40;10.60;;;;;;;22.09;45.86;94344.75;6222470;27;103688;-68
2022/11/20 03:15:36;;;;;;;11.03;10.13;;;;;;;22.10;46.05;94325.00;6232558;27;103701;-67
2022/11/20 03:18:39;;;;;;;11.30;10.33;;;;;;;22.10;45.98;94332.22;6232002;27;104099;-68
2022/11/20 03:21:42;;;;;;;10.40;9.60;;;;;;;22.10;45.59;94338.31;6231696;27;103991;-67
2022/11/20 03:24:46;;;;;;;11.73;10.73;;;;;;;22.10;45.77;94343.66;6221750;27;103735;-68
2022/11/20 03:27:50;;;;;;;11.13;10.20;;;;;;;22.11;46.10;94341.75;6233102;27;104058;-67
2022/11/20 03:30:53;;;;;;;10.83;9.93;;;;;;;22.13;46.21;94346.78;6233280;27;103759;-67
2022/11/20 03:33:57;;;;;;;10.93;10.13;;;;;;;22.12;45.94;94340.66;6232879;27;103834;-68
2022/11/20 03:37:00;;;;;;;10.20;9.40;;;;;;;22.14;45.55;94353.66;6223706;27;104697;-68
2022/11/20 03:40:04;;;;;;;10.53;9.70;;;;;;;22.13;46.10;94346.78;6232605;27;103751;-68
2022/11/20 03:43:10;;;;;;;10.37;9.50;;;;;;;22.13;45.96;94357.44;6231956;28;104934;-68
2022/11/20 03:46:13;;;;;;;9.80;9.00;;;;;;;22.10;45.69;94348.97;6225832;28;105801;-68
2022/11/20 03:49:16;;;;;;;10.00;9.17;;;;;;;22.13;45.73;94352.09;6230612;28;108266;-68
2022/11/20 03:52:19;;;;;;;9.50;8.70;;;;;;;22.11;46.03;94353.22;6231271;27;103639;-68
2022/11/20 03:55:22;;;;;;;9.40;8.70;;;;;;;22.12;46.21;94346.00;6232594;28;104812;-68
2022/11/20 03:58:27;;;;;;;9.90;9.10;;;;;;;22.10;45.65;94350.88;6221591;27;104768;-68
2022/11/20 04:01:32;;;;;;;10.13;9.33;;;;;;;22.12;45.69;94353.97;6230623;27;104212;-68
2022/11/20 04:04:35;;;;;;;8.80;8.10;;;;;;;22.11;46.37;94349.75;6231729;28;103873;-68
2022/11/20 04:07:38;;;;;;;9.43;8.53;;;;;;;22.12;45.73;94340.66;6232077;27;103857;-67
2022/11/20 04:10:41;;;;;;;9.60;8.80;;;;;;;22.13;45.83;94346.78;6221702;28;103653;-67
2022/11/20 04:13:48;;;;;;;9.20;8.40;;;;;;;22.10;46.18;94354.31;6231370;27;103748;-67
2022/11/20 04:16:51;;;;;;;8.70;8.10;;;;;;;22.11;45.88;94355.09;6232457;28;103687;-67
2022/11/20 04:19:54;;;;;;;8.47;7.87;;;;;;;22.13;46.19;94370.75;6226902;27;103983;-67
2022/11/20 04:22:57;;;;;;;8.10;7.40;;;;;;;22.13;45.68;94376.88;6224989;27;103855;-65
2022/11/20 04:26:04;;;;;;;8.50;7.80;;;;;;;22.13;45.95;94376.88;6233139;28;104941;-65
2022/11/20 04:29:11;;;;;;;8.47;7.77;;;;;;;22.13;45.69;94389.41;6230334;28;103956;-65
2022/11/20 04:32:14;;;;;;;7.80;7.20;;;;;;;22.13;45.99;94384.84;6221943;27;103982;-65
2022/11/20 04:35:17;;;;;;;8.80;8.10;;;;;;;22.12;46.03;94388.63;6230570;27;106070;-64
2022/11/20 04:38:20;;;;;;;8.07;7.47;;;;;;;22.11;45.77;94371.84;6232360;27;104014;-65
2022/11/20 04:41:25;;;;;;;8.27;7.57;;;;;;;22.12;46.47;94383.28;6230394;28;107884;-65
2022/11/20 04:44:29;;;;;;;8.00;7.40;;;;;;;22.10;46.36;94386.28;6213979;27;103689;-65
2022/11/20 04:47:33;;;;;;;7.40;6.80;;;;;;;22.11;46.20;94373.75;6224461;27;104262;-66
2022/11/20 04:50:41;;;;;;;8.07;7.37;;;;;;;22.10;46.32;94356.97;6228404;27;104582;-65
2022/11/20 04:53:44;;;;;;;7.60;7.00;;;;;;;22.11;45.99;94371.06;6220445;28;103881;-65
2022/11/20 04:56:48;;;;;;;6.67;6.17;;;;;;;22.13;45.82;94363.53;6215606;28;103595;-65
2022/11/20 04:59:53;;;;;;;7.60;7.00;;;;;;;22.13;45.80;94354.75;6228074;27;103660;-66
2022/11/20 05:02:57;;;;;;;7.90;7.20;;;;;;;22.11;45.85;94358.53;6231504;28;104796;-65
2022/11/20 05:06:02;;;;;;;6.70;6.20;;;;;;;22.13;45.91;94368.88;6225927;27;103732;-64
2022/11/20 05:09:05;;;;;;;6.70;6.20;;;;;;;22.14;45.73;94351.78;6227003;27;103619;-65
2022/11/20 05:12:08;;;;;;;7.20;6.60;;;;;;;22.13;46.24;94368.88;6230777;28;105272;-64
2022/11/20 05:15:13;;;;;;;7.37;6.77;;;;;;;22.15;46.20;94392.53;6231370;27;104481;-65
2022/11/20 05:18:16;;;;;;;6.97;6.37;;;;;;;22.15;46.26;94368.53;6220751;27;103685;-65
2022/11/20 05:21:19;;;;;;;6.77;6.27;;;;;;;22.13;45.51;94379.53;6230978;27;103712;-65
2022/11/20 05:24:22;;;;;;;6.53;6.03;;;;;;;22.13;45.99;94355.53;6229916;28;104761;-65
2022/11/20 05:27:25;;;;;;;6.63;5.50;;;;;;;22.14;45.57;94349.09;6229954;28;103752;-65
2022/11/20 05:30:30;;;;;;;5.73;5.33;;;;;;;22.14;45.93;94341.13;6220258;27;104245;-65
2022/11/20 05:33:33;;;;;;;6.00;5.60;;;;;;;22.13;45.97;94350.22;6229666;27;104739;-65
2022/11/20 05:36:37;;;;;;;5.87;5.37;;;;;;;22.13;45.48;94352.09;6229664;27;103949;-64
2022/11/20 05:39:40;;;;;;;5.40;5.00;;;;;;;22.15;46.18;94349.88;6225616;28;106858;-65
2022/11/20 05:42:43;;;;;;;6.00;5.33;;;;;;;22.13;45.86;94341.44;6221348;28;104529;-65
2022/11/20 05:45:54;;;;;;;5.87;5.37;;;;;;;22.13;46.07;94342.22;6222076;28;103635;-64
2022/11/20 05:48:58;;;;;;;5.60;5.10;;;;;;;22.14;46.26;94330.47;6230294;28;103902;-65
2022/11/20 05:52:01;;;;;;;4.67;4.37;;;;;;;22.15;45.85;94333.91;6220571;28;103967;-65
2022/11/20 05:55:05;;;;;;;5.33;4.83;;;;;;;22.16;46.24;94311.47;6229752;28;103460;-64
2022/11/20 05:58:08;;;;;;;4.77;4.37;;;;;;;22.16;45.90;94309.59;6230653;28;103631;-64
2022/11/20 06:01:15;;;;;;;5.23;4.73;;;;;;;22.16;45.98;94320.25;6222723;28;103934;-63
2022/11/20 06:04:18;;;;;;;5.47;5.00;;;;;;;22.17;46.17;94342.34;6224371;28;107410;-65
2022/11/20 06:07:21;;;;;;;5.50;5.00;;;;;;;22.18;46.14;94330.59;6234501;28;103747;-64
2022/11/20 06:10:24;;;;;;;5.50;5.00;;;;;;;22.21;45.85;94332.63;6233390;27;103668;-64
2022/11/20 06:13:27;;;;;;;5.70;5.30;;;;;;;22.26;45.96;94329.75;6230494;27;104203;-64
2022/11/20 06:16:31;;;;;;;6.23;5.63;;;;;;;22.22;46.48;94342.97;6222027;28;104122;-64
2022/11/20 06:19:34;;;;;;;3.70;3.17;;;;;;;22.01;45.24;94337.59;6222474;28;107153;-64
2022/11/20 06:22:37;;;;;;;2.40;2.00;;;;;;;21.80;44.86;94324.19;6223335;27;103985;-64
2022/11/20 06:25:42;;;;;;;3.67;2.07;;;;;;;21.73;45.04;94345.22;6207464;27;104073;-65
2022/11/20 06:28:45;;;;;;;4.90;1.50;;;;;;;21.39;45.25;94362.09;6228152;27;103969;-65
2022/11/20 06:31:50;;;;;;;3.00;1.37;;;;;;;21.04;45.65;94369.34;6234170;27;103861;-64
2022/11/20 06:34:53;;;;;;;4.03;1.53;;;;;;;21.25;45.51;94360.72;6234216;27;104432;-64
2022/11/20 06:37:57;;;;;;;2.93;1.20;;;;;;;21.50;45.13;94363.31;6224367;27;103726;-65
2022/11/20 06:41:00;;;;;;;1.50;1.40;;;;;;;21.63;45.34;94356.22;6233793;27;104148;-64
2022/11/20 06:44:05;;;;;;;2.40;1.27;;;;;;;21.86;45.48;94356.81;6232633;27;103578;-64
2022/11/20 06:47:09;;;;;;;3.37;1.20;;;;;;;21.93;44.63;94359.72;6233887;27;104977;-64
2022/11/20 06:50:12;;;;;;;2.40;1.63;;;;;;;21.21;44.50;94349.94;6224827;27;104147;-63
2022/11/20 06:53:15;;;;;;;2.80;1.40;;;;;;;21.42;44.69;94348.16;6233064;28;104743;-65
2022/11/20 06:56:18;;;;;;;4.50;2.27;;;;;;;21.78;44.74;94368.22;6230324;27;104559;-64
2022/11/20 06:59:21;;;;;;;2.87;1.67;;;;;;;21.69;44.43;94359.50;6227580;28;104751;-64
2022/11/20 07:02:26;;;;;;;2.90;1.87;;;;;;;21.81;44.40;94362.25;6223672;28;104755;-64
2022/11/20 07:05:29;;;;;;;6.13;1.80;;;;;;;21.89;43.94;94374.78;6233150;28;104252;-64
2022/11/20 07:08:33;;;;;;;2.47;1.63;;;;;;;21.91;44.75;94383.25;6234137;28;103727;-64
2022/11/20 07:11:36;;;;;;;4.23;1.70;;;;;;;21.96;44.32;94383.06;6227755;27;103774;-66
2022/11/20 07:14:39;;;;;;;17.57;2.33;;;;;;;22.07;45.16;94394.16;6227451;28;104663;-64
2022/11/20 07:17:44;;;;;;;4.00;1.40;;;;;;;22.13;44.70;94368.88;6233750;28;106041;-64
2022/11/20 07:20:47;;;;;;;5.17;1.33;;;;;;;22.19;45.96;94382.81;6229611;28;103717;-65
2022/11/20 07:23:50;;;;;;;7.97;2.20;;;;;;;22.12;47.79;94388.63;6222267;27;103869;-64
2022/11/20 07:26:53;;;;;;;7.10;1.40;;;;;;;22.17;46.62;94420.41;6231012;27;104045;-63
2022/11/20 07:29:56;;;;;;;2.80;1.10;;;;;;;22.09;45.53;94411.38;6233141;28;103943;-64
2022/11/20 07:33:01;;;;;;;2.40;1.10;;;;;;;22.05;44.89;94373.16;6220829;28;104252;-64
2022/11/20 07:36:05;;;;;;;5.70;1.50;;;;;;;22.18;44.58;94370.56;6219323;28;104123;-65
2022/11/20 07:39:08;;;;;;;2.87;1.33;;;;;;;22.26;45.37;94377.75;6228696;28;103975;-64
2022/11/20 07:42:11;;;;;;;4.97;1.50;;;;;;;22.28;45.35;94386.97;6230815;27;104617;-66
2022/11/20 07:45:15;;;;;;;4.70;1.87;;;;;;;22.34;45.39;94391.00;6231823;28;102858;-63
2022/11/20 07:48:19;;;;;;;5.27;1.90;;;;;;;22.35;45.40;94386.47;6219681;28;103727;-63
2022/11/20 07:51:22;;;;;;;4.37;1.90;;;;;;;22.37;44.81;94368.28;6231863;27;104040;-63
2022/11/20 07:54:25;;;;;;;6.40;1.80;;;;;;;22.38;45.10;94383.16;6229429;28;104435;-63
2022/11/20 07:57:28;;;;;;;7.40;1.90;;;;;;;22.23;44.75;94376.50;6224996;28;103731;-62
2022/11/20 08:00:31;;;;;;;12.13;1.57;;;;;;;22.17;44.53;94406.31;6226450;27;103850;-62
2022/11/20 08:03:38;;;;;;;4.20;1.77;;;;;;;21.79;43.62;94385.75;6232504;28;103405;-63
2022/11/20 08:06:41;;;;;;;5.80;1.83;;;;;;;21.93;43.49;94397.03;6231046;27;103803;-62
2022/11/20 08:09:44;;;;;;;4.17;1.60;;;;;;;22.02;43.83;94394.34;6222033;27;104141;-63
2022/11/20 08:16:09;;;;;;;8.00;1.73;;;;;;;22.10;44.17;94390.84;6207979;28;104971;-65
2022/11/20 08:19:14;;;;;;;6.17;1.53;;;;;;;21.79;43.84;94367.91;6222893;28;103921;-63
2022/11/20 08:22:17;;;;;;;13.53;2.43;;;;;;;21.89;44.37;94369.47;6221544;27;103822;-63
2022/11/20 08:25:21;;;;;;;7.37;2.20;;;;;;;21.89;43.38;94384.66;6228205;27;103764;-63
2022/11/20 08:28:24;;;;;;;5.57;1.50;;;;;;;21.95;43.10;94354.84;6230960;27;103947;-63
2022/11/20 08:31:28;;;;;;;7.57;1.70;;;;;;;22.01;42.99;94364.25;6222103;28;104670;-64
2022/11/20 08:34:36;;;;;;;5.90;1.53;;;;;;;22.01;42.85;94379.44;6218290;28;104043;-65
2022/11/20 08:37:41;;;;;;;4.27;1.50;;;;;;;22.00;42.38;94370.66;6232664;28;104221;-63
2022/11/20 08:41:23;;;;;;;5.30;1.30;;;;;;;21.99;42.95;94378.97;6231238;28;104899;-63
2022/11/20 08:44:08;;;;;;;6.20;1.90;;;;;;;22.08;44.06;94369.84;6217813;28;105545;-63
2022/11/20 08:47:11;;;;;;;4.93;1.67;;;;;;;22.09;44.11;94367.97;6225513;28;103485;-63
2022/11/20 08:50:17;;;;;;;3.37;1.13;;;;;;;22.09;43.60;94374.06;6231363;27;103868;-64
2022/11/20 08:53:20;;;;;;;4.07;1.53;;;;;;;22.13;43.14;94410.72;6231853;27;104902;-63
2022/11/20 08:56:23;;;;;;;3.50;1.90;;;;;;;22.14;43.84;94423.72;6220680;27;103786;-64
2022/11/20 08:59:27;;;;;;;5.60;2.03;;;;;;;22.14;43.63;94428.28;6231086;28;104180;-65
2022/11/20 09:02:51;;;;;;;4.40;2.70;;;;;;;22.12;44.11;94425.94;6230096;28;103343;-64
2022/11/20 09:06:00;;;;;;;8.23;3.90;;;;;;;22.19;45.31;94423.56;6231861;28;103629;-64
2022/11/20 09:09:03;;;;;;;6.40;3.30;;;;;;;22.21;46.00;94423.25;6220301;27;104383;-63
2022/11/20 09:12:09;;;;;;;5.03;3.40;;;;;;;22.21;46.76;94417.91;6231688;28;104880;-63
2022/11/20 09:15:12;;;;;;;5.77;3.10;;;;;;;22.20;46.61;94424.34;6222660;28;103969;-64
2022/11/20 09:18:15;;;;;;;9.07;4.43;;;;;;;22.21;47.97;94417.91;6215859;28;103699;-63
2022/11/20 09:21:19;;;;;;;8.00;3.90;;;;;;;22.24;49.08;94427.91;6229675;28;104905;-64
2022/11/20 09:24:23;;;;;;;7.50;4.17;;;;;;;22.22;49.36;94424.81;6224329;28;104758;-63
2022/11/20 09:27:26;;;;;;;6.93;3.30;;;;;;;22.23;48.89;94413.03;6225310;28;104101;-65
2022/11/20 09:30:30;;;;;;;5.10;3.87;;;;;;;22.28;48.25;94421.63;6209817;27;105440;-64
2022/11/20 09:33:33;;;;;;;5.40;3.70;;;;;;;22.23;47.11;94426.38;6232065;27;106319;-65
2022/11/20 09:36:38;;;;;;;5.80;3.80;;;;;;;22.19;47.40;94414.78;6232981;28;103784;-62
2022/11/20 09:39:41;;;;;;;7.00;4.37;;;;;;;22.19;46.56;94414.78;6211399;28;104208;-63
2022/11/20 09:42:49;;;;;;;6.60;3.73;;;;;;;22.19;46.93;94398.78;6199853;28;103942;-65
2022/11/20 09:46:03;;;;;;;6.57;4.27;;;;;;;22.20;46.97;94417.13;6217022;28;103931;-65
2022/11/20 09:49:23;;;;;;;14.60;5.20;;;;;;;22.31;48.73;94398.88;6219956;28;103999;-63
2022/11/20 09:52:46;;;;;;;23.33;5.23;;;;;;;22.28;48.48;94407.50;6220623;28;106025;-63
2022/11/20 09:55:50;;;;;;;15.93;4.80;;;;;;;22.30;48.21;94415.97;6208071;28;105024;-63
2022/11/20 09:58:56;;;;;;;16.80;12.10;;;;;;;22.33;49.48;94405.44;6210601;28;104066;-62
2022/11/20 10:02:01;;;;;;;133.60;119.70;;;;;;;22.30;52.64;94411.41;6210071;28;104736;-64
2022/11/20 10:05:12;;;;;;;45.10;40.00;;;;;;;22.21;48.46;94397.38;6209918;28;103993;-63
2022/11/20 10:08:22;;;;;;;32.63;29.43;;;;;;;22.13;47.62;94350.22;6235173;27;104916;-63
2022/11/20 10:11:36;;;;;;;39.30;35.20;;;;;;;22.06;47.98;94365.94;6234320;27;103702;-63
2022/11/20 10:14:51;;;;;;;24.00;21.40;;;;;;;21.96;47.46;94359.09;6234356;27;103654;-62
2022/11/20 10:18:11;;;;;;;23.30;19.00;;;;;;;21.90;47.19;94355.06;6222702;27;103685;-63
2022/11/20 10:21:27;;;;;;;16.30;13.17;;;;;;;21.90;46.67;94355.06;6232609;28;103543;-64
2022/11/20 10:24:55;;;;;;;16.03;14.30;;;;;;;21.89;47.04;94356.16;6234268;27;103847;-63
2022/11/20 10:28:24;;;;;;;10.20;8.73;;;;;;;21.85;46.67;94341.91;6199785;28;103884;-63
2022/11/20 10:31:32;;;;;;;10.50;8.60;;;;;;;21.86;46.35;94348.81;6217971;28;104217;-63
2022/11/20 10:34:46;;;;;;;9.27;6.70;;;;;;;21.84;46.30;94350.97;6231307;28;104953;-63
2022/11/20 10:37:56;;;;;;;10.17;8.10;;;;;;;22.05;46.67;94351.06;6215482;28;103935;-63
2022/11/20 10:47:43;;;;;;;12.70;8.33;;;;;;;22.33;46.01;94362.00;6233482;28;103981;-63
2022/11/20 10:50:55;;;;;;;10.17;7.73;;;;;;;22.34;46.12;94363.56;6222910;28;103911;-63
2022/11/20 10:54:18;;;;;;;10.70;8.10;;;;;;;22.38;45.83;94359.94;6232294;27;103755;-64
2022/11/20 10:57:33;;;;;;;9.30;7.63;;;;;;;22.40;45.72;94363.06;6231370;28;103533;-64
2022/11/20 11:00:37;;;;;;;11.30;8.63;;;;;;;22.41;45.59;94374.50;6230214;28;103896;-63
2022/11/20 11:03:42;;;;;;;11.13;7.67;;;;;;;22.43;45.42;94356.31;6222066;28;104680;-63
2022/11/20 11:06:49;;;;;;;8.87;7.97;;;;;;;22.42;45.50;94394.72;6226794;28;103879;-63
2022/11/20 11:09:55;;;;;;;8.80;7.67;;;;;;;22.43;45.51;94412.28;6223953;28;104349;-64
2022/11/20 11:13:00;;;;;;;9.83;7.97;;;;;;;22.45;45.75;94422.63;6208353;28;103788;-64
2022/11/20 11:16:04;;;;;;;15.00;10.37;;;;;;;22.43;45.91;94420.28;6218205;28;105159;-63
2022/11/20 11:19:12;;;;;;;10.43;9.53;;;;;;;22.49;46.63;94423.53;6226797;28;103730;-62
2022/11/20 11:22:19;;;;;;;14.20;10.50;;;;;;;22.60;46.79;94435.44;6228449;28;104857;-62
2022/11/20 11:25:29;;;;;;;14.10;12.80;;;;;;;22.66;47.32;94464.25;6221440;27;103790;-62
2022/11/20 11:28:34;;;;;;;15.70;14.10;;;;;;;22.69;47.61;94414.84;6229519;28;104913;-63
2022/11/20 11:31:37;;;;;;;18.00;16.07;;;;;;;22.67;48.04;94415.13;6232316;28;103887;-62
2022/11/20 11:34:40;;;;;;;20.53;17.73;;;;;;;22.71;48.42;94420.63;6231850;27;104990;-63
2022/11/20 11:37:43;;;;;;;21.30;19.00;;;;;;;22.75;48.45;94431.41;6220367;27;104335;-62
2022/11/20 11:40:47;;;;;;;20.67;18.77;;;;;;;22.75;48.81;94458.88;6232242;27;103688;-62
2022/11/20 11:47:24;;;;;;;23.90;21.50;;;;;;;22.68;48.98;94480.72;6232875;27;103770;-63
2022/11/20 11:50:29;;;;;;;21.47;19.27;;;;;;;22.64;49.03;94461.13;6225721;27;103823;-63
2022/11/20 11:53:35;;;;;;;22.73;19.43;;;;;;;22.62;48.99;94436.66;6232103;27;103771;-63
2022/11/20 11:56:38;;;;;;;21.77;19.77;;;;;;;22.62;48.89;94438.56;6231753;27;103418;-64
2022/11/20 11:59:55;;;;;;;19.47;17.67;;;;;;;22.61;48.57;94429.78;6223205;28;104121;-64
2022/11/20 12:03:08;;;;;;;20.03;17.93;;;;;;;22.59;49.15;94429.31;6232659;28;103438;-63
2022/11/20 12:06:14;;;;;;;19.23;17.50;;;;;;;22.59;48.52;94418.66;6233153;27;103900;-64
2022/11/20 12:09:20;;;;;;;19.47;17.57;;;;;;;22.62;48.63;94412.66;6231942;27;103690;-63
2022/11/20 12:12:28;;;;;;;19.87;17.77;;;;;;;22.60;48.64;94414.88;6221956;27;103664;-64
2022/11/20 12:15:35;;;;;;;23.23;16.70;;;;;;;22.60;49.19;94425.53;6231114;28;106559;-62
2022/11/20 12:18:39;;;;;;;19.90;17.03;;;;;;;22.60;48.85;94425.53;6231443;27;104184;-63
2022/11/20 12:21:55;;;;;;;17.83;16.00;;;;;;;22.63;49.02;94435.56;6230485;27;104867;-64
2022/11/20 12:25:11;;;;;;;18.17;16.43;;;;;;;22.63;49.45;94440.13;6224734;28;104933;-65
2022/11/20 12:28:29;;;;;;;18.07;16.37;;;;;;;22.63;49.07;94422.22;6232707;27;103421;-62
2022/11/20 12:31:48;;;;;;;18.60;16.77;;;;;;;22.61;49.07;94424.44;6232645;28;104791;-64
2022/11/20 12:35:03;;;;;;;17.63;16.03;;;;;;;22.63;49.57;94450.78;6222433;27;104500;-63
2022/11/20 12:38:41;;;;;;;19.57;17.47;;;;;;;22.65;49.11;94440.56;6231544;28;103862;-62
2022/11/20 12:45:48;;;;;;;18.43;15.80;;;;;;;22.62;49.43;94359.31;6195577;28;103562;-62
2022/11/20 12:49:29;;;;;;;17.00;15.20;;;;;;;22.64;49.47;94361.66;6224693;28;104738;-64
2022/11/20 12:52:43;;;;;;;16.13;14.63;;;;;;;22.61;49.75;94344.44;6224894;28;104359;-63
2022/11/20 12:55:56;;;;;;;15.90;14.40;;;;;;;22.65;49.84;94342.66;6231147;28;104773;-63
2022/11/20 12:59:17;;;;;;;16.83;15.03;;;;;;;22.62;49.35;94338.00;6220147;27;104198;-63
2022/11/20 13:02:38;;;;;;;16.23;14.60;;;;;;;22.63;49.49;94334.22;6228933;28;103872;-64
2022/11/20 13:05:54;;;;;;;15.70;14.20;;;;;;;22.61;49.61;94331.09;6230417;27;103777;-62
2022/11/20 13:08:57;;;;;;;14.83;13.43;;;;;;;22.63;49.67;94330.78;6219246;27;104654;-63
2022/11/20 13:12:07;;;;;;;16.70;14.30;;;;;;;22.69;49.83;94326.81;6234307;27;103886;-62
2022/11/20 13:15:24;;;;;;;16.80;15.10;;;;;;;22.67;49.57;94313.78;6230936;28;103436;-63
2022/11/20 13:18:29;;;;;;;15.13;13.60;;;;;;;22.66;49.69;94290.88;6235855;27;104218;-62
2022/11/20 13:21:40;;;;;;;13.97;12.57;;;;;;;22.71;49.24;94313.94;6224098;28;104827;-63
2022/11/20 13:24:51;;;;;;;13.77;12.37;;;;;;;22.73;49.59;94332.28;6184939;28;103522;-63
2022/11/20 13:27:56;;;;;;;15.03;13.50;;;;;;;22.72;49.68;94314.72;6184422;28;103783;-63
2022/11/20 13:31:00;;;;;;;15.17;13.57;;;;;;;22.78;49.00;94321.41;6167227;28;103553;-64
2022/11/20 13:34:06;;;;;;;13.57;12.00;;;;;;;22.68;49.71;94371.38;6180522;28;103532;-64
2022/11/20 13:37:33;;;;;;;13.80;12.43;;;;;;;22.57;48.41;94393.41;6185294;28;103703;-66
2022/11/20 13:40:38;;;;;;;11.87;10.53;;;;;;;22.50;47.50;94363.78;6182930;28;104120;-63
2022/11/20 13:43:42;;;;;;;8.70;7.80;;;;;;;22.59;46.95;94375.19;6173941;28;103923;-62
2022/11/20 13:46:47;;;;;;;9.63;8.73;;;;;;;22.64;46.79;94348.34;6185091;28;104796;-63
2022/11/20 13:49:52;;;;;;;10.07;8.73;;;;;;;22.67;47.31;94356.47;6173209;28;103736;-63
2022/11/20 13:53:06;;;;;;;8.63;7.83;;;;;;;22.71;47.41;94367.28;6178132;28;104810;-63
2022/11/20 13:56:20;;;;;;;8.97;8.07;;;;;;;22.73;47.54;94370.41;6161770;28;103779;-63
2022/11/20 13:59:36;;;;;;;8.03;7.30;;;;;;;22.77;47.56;94386.53;6180228;28;103348;-63
2022/11/20 14:02:41;;;;;;;9.03;7.70;;;;;;;22.81;48.12;94387.44;6175490;28;103758;-63
2022/11/20 14:05:52;;;;;;;9.10;8.10;;;;;;;22.86;48.17;94352.56;6172457;28;104800;-63
2022/11/20 14:08:57;;;;;;;8.40;7.60;;;;;;;22.87;48.24;94402.16;6180779;28;103673;-63
2022/11/20 14:12:01;;;;;;;9.30;7.80;;;;;;;22.84;48.92;94384.88;6184687;28;104005;-63
2022/11/20 14:15:04;;;;;;;8.93;8.03;;;;;;;22.85;48.59;94340.31;6176401;28;103772;-63
2022/11/20 14:18:14;;;;;;;9.53;8.63;;;;;;;22.89;48.52;94357.25;6173550;28;104705;-63
2022/11/20 14:21:25;;;;;;;8.70;7.90;;;;;;;22.93;48.37;94363.47;6182250;28;103657;-62
2022/11/20 14:24:30;;;;;;;9.37;8.50;;;;;;;22.96;48.80;94373.50;6229125;28;102873;-61
2022/11/20 14:27:36;;;;;;;9.93;8.97;;;;;;;22.93;49.23;94361.59;6232768;27;104243;-62
2022/11/20 14:30:44;;;;;;;10.00;9.00;;;;;;;22.92;49.15;94380.59;6219550;28;103855;-62
2022/11/20 14:33:48;;;;;;;9.30;8.23;;;;;;;22.98;48.72;94357.94;6221560;28;104965;-64
2022/11/20 14:36:56;;;;;;;9.77;8.87;;;;;;;22.92;49.24;94367.25;6232866;27;104212;-64